createdAt,value
2022-10-30T00:03:29.075Z,8.75
2022-10-30T00:08:31.745Z,8.00
2022-10-30T00:13:37.538Z,7.25
2022-10-30T00:18:42.108Z,7.25
2022-10-30T00:23:49.576Z,7.50
2022-10-30T00:28:54.761Z,6.50
2022-10-30T00:33:57.490Z,7.75
2022-10-30T00:39:00.190Z,8.00
2022-10-30T00:44:04.219Z,8.75
2022-10-30T00:49:16.425Z,7.00
2022-10-30T00:54:21.291Z,8.00
2022-10-30T00:59:29.477Z,8.50
2022-10-30T01:04:35.353Z,7.00
2022-10-30T01:09:39.443Z,6.75
2022-10-30T01:14:48.795Z,6.50
2022-10-30T01:20:05.431Z,5.75
2022-10-30T01:25:28.686Z,7.00
2022-10-30T01:30:49.540Z,7.25
2022-10-30T01:36:02.718Z,6.00
2022-10-30T01:41:05.657Z,6.75
2022-10-30T01:46:25.651Z,7.50
2022-10-30T01:51:42.293Z,6.50
2022-10-30T01:56:57.646Z,7.50
2022-10-30T02:02:02.295Z,6.25
2022-10-30T02:07:05.250Z,5.75
2022-10-30T02:12:14.330Z,5.50
2022-10-30T02:17:19.769Z,7.00
2022-10-30T02:22:27.401Z,6.50
2022-10-30T02:27:30.158Z,6.50
2022-10-30T02:32:33.056Z,6.75
2022-10-30T02:37:37.278Z,6.00
2022-10-30T02:42:40.116Z,6.75
2022-10-30T02:47:42.962Z,7.00
2022-10-30T02:52:47.039Z,5.50
2022-10-30T02:57:49.783Z,6.00
2022-10-30T03:02:56.361Z,6.00
2022-10-30T03:08:00.912Z,6.00
2022-10-30T03:13:03.788Z,6.00
2022-10-30T03:18:08.345Z,6.00
2022-10-30T03:23:18.508Z,6.50
2022-10-30T03:28:21.574Z,5.75
2022-10-30T03:33:24.584Z,5.00
2022-10-30T03:38:28.770Z,5.00
2022-10-30T03:43:31.468Z,6.75
2022-10-30T03:48:34.163Z,5.00
2022-10-30T03:53:38.715Z,5.00
2022-10-30T03:58:41.602Z,5.00
2022-10-30T04:03:47.171Z,5.00
2022-10-30T04:08:51.372Z,5.25
2022-10-30T04:13:54.060Z,5.00
2022-10-30T04:18:58.352Z,6.00
2022-10-30T04:24:02.484Z,5.50
2022-10-30T04:29:08.416Z,5.00
2022-10-30T04:34:12.272Z,4.75
2022-10-30T04:39:16.395Z,5.50
2022-10-30T04:44:19.923Z,5.25
2022-10-30T04:49:23.006Z,5.75
2022-10-30T04:54:28.605Z,5.00
2022-10-30T04:59:31.426Z,5.00
2022-10-30T05:04:34.124Z,5.00
2022-10-30T05:09:39.158Z,4.50
2022-10-30T05:14:41.848Z,4.75
2022-10-30T05:19:44.618Z,4.50
2022-10-30T05:24:49.245Z,4.00
2022-10-30T05:29:52.027Z,4.50
2022-10-30T05:34:55.312Z,4.00
2022-10-30T05:40:00.621Z,3.50
2022-10-30T05:45:05.504Z,4.50
2022-10-30T05:50:12.589Z,4.00
2022-10-30T05:55:24.401Z,4.00
2022-10-30T06:00:42.559Z,5.00
2022-10-30T06:05:46.974Z,4.00
2022-10-30T06:10:52.295Z,5.00
2022-10-30T06:15:59.235Z,4.00
2022-10-30T06:21:10.491Z,4.00
2022-10-30T06:26:26.948Z,5.00
2022-10-30T06:31:33.464Z,4.75
2022-10-30T06:36:37.415Z,4.50
2022-10-30T06:41:44.779Z,4.00
2022-10-30T06:47:07.769Z,5.00
2022-10-30T06:52:10.790Z,3.00
2022-10-30T06:57:16.451Z,4.00
2022-10-30T07:02:41.114Z,4.00
2022-10-30T07:07:49.558Z,4.00
2022-10-30T07:12:55.365Z,3.75
2022-10-30T07:18:20.127Z,2.00
2022-10-30T07:23:24.274Z,4.00
2022-10-30T07:28:31.558Z,4.25
2022-10-30T07:34:00.271Z,3.00
2022-10-30T07:39:38.154Z,4.00
2022-10-30T07:44:55.082Z,4.00
2022-10-30T07:50:21.172Z,4.75
2022-10-30T07:55:23.977Z,3.00
2022-10-30T08:00:28.248Z,3.00
2022-10-30T08:05:40.470Z,4.75
2022-10-30T08:10:45.679Z,8.75
2022-10-30T08:15:50.699Z,10.75
2022-10-30T08:32:30.228Z,6.50
2022-10-30T08:38:02.903Z,10.00
2022-10-30T08:43:06.542Z,6.00
2022-10-30T08:48:14.323Z,6.00
2022-10-30T08:53:20.425Z,7.25
2022-10-30T08:58:24.345Z,6.25
2022-10-30T09:03:28.430Z,9.25
2022-10-30T09:08:33.954Z,8.00
2022-10-30T09:14:02.488Z,6.00
2022-10-30T09:19:06.656Z,8.75
2022-10-30T09:24:09.445Z,7.00
2022-10-30T09:29:12.028Z,6.50
2022-10-30T09:34:35.911Z,5.00
2022-10-30T09:39:56.105Z,6.50
2022-10-30T09:45:28.827Z,5.75
2022-10-30T09:50:42.193Z,6.00
2022-10-30T09:55:52.424Z,5.50
2022-10-30T10:01:07.568Z,7.00
2022-10-30T10:06:18.386Z,6.00
2022-10-30T10:11:37.155Z,5.25
2022-10-30T10:16:42.013Z,4.75
2022-10-30T10:21:50.374Z,6.00
2022-10-30T10:26:58.278Z,4.25
2022-10-30T10:32:18.662Z,4.00
2022-10-30T10:37:35.413Z,4.25
2022-10-30T10:42:48.360Z,5.25
2022-10-30T10:48:26.825Z,4.00
2022-10-30T10:53:39.477Z,5.50
2022-10-30T10:58:50.390Z,5.25
2022-10-30T11:03:58.664Z,4.00
2022-10-30T11:09:15.278Z,4.00
2022-10-30T11:14:20.259Z,4.00
2022-10-30T11:19:23.388Z,4.50
2022-10-30T11:24:35.083Z,4.50
2022-10-30T11:29:37.945Z,6.75
2022-10-30T11:34:40.520Z,6.00
2022-10-30T11:40:03.470Z,15.25
2022-10-30T11:45:15.480Z,28.00
2022-10-30T11:50:21.297Z,24.00
2022-10-30T11:55:30.416Z,20.80
2022-10-30T12:00:36.203Z,20.20
2022-10-30T12:05:42.623Z,20.00
2022-10-30T12:10:57.959Z,19.20
2022-10-30T12:16:10.397Z,19.60
2022-10-30T12:21:19.999Z,15.00
2022-10-30T12:26:25.680Z,15.25
2022-10-30T12:31:37.151Z,15.00
2022-10-30T12:36:46.897Z,15.00
2022-10-30T12:42:00.321Z,12.50
2022-10-30T12:47:10.179Z,12.75
2022-10-30T12:52:19.411Z,13.00
2022-10-30T12:57:26.841Z,12.00
2022-10-30T13:02:41.216Z,12.50
2022-10-30T13:07:48.674Z,12.75
2022-10-30T13:12:57.706Z,13.75
2022-10-30T13:18:07.554Z,11.50
2022-10-30T13:23:13.864Z,12.75
2022-10-30T13:28:24.947Z,11.00
2022-10-30T13:33:37.103Z,10.75
2022-10-30T13:38:48.075Z,12.00
2022-10-30T13:44:02.257Z,11.00
2022-10-30T13:49:16.688Z,10.25
2022-10-30T13:54:23.185Z,9.75
2022-10-30T13:59:41.064Z,10.00
2022-10-30T14:04:53.729Z,10.50
2022-10-30T14:10:03.592Z,10.25
2022-10-30T14:15:19.771Z,10.00
2022-10-30T14:20:26.565Z,9.75
2022-10-30T14:25:29.293Z,9.25
2022-10-30T14:30:35.197Z,10.00
2022-10-30T14:35:40.714Z,9.25
2022-10-30T14:41:07.163Z,10.00
2022-10-30T14:46:22.390Z,9.50
2022-10-30T14:51:36.609Z,9.25
2022-10-30T14:56:46.158Z,10.50
2022-10-30T15:01:57.849Z,10.75
2022-10-30T15:07:07.406Z,9.50
2022-10-30T15:17:40.485Z,9.00
2022-10-30T15:22:43.672Z,9.00
2022-10-30T15:27:48.462Z,8.00
2022-10-30T15:32:53.431Z,6.50
2022-10-30T15:38:00.914Z,6.50
2022-10-30T15:43:06.534Z,7.00
2022-10-30T15:48:23.109Z,7.50
2022-10-30T15:53:29.720Z,12.00
2022-10-30T15:58:35.784Z,8.75
2022-10-30T16:03:42.148Z,8.00
2022-10-30T16:08:48.715Z,7.75
2022-10-30T16:13:52.381Z,8.50
2022-10-30T16:19:01.159Z,8.00
2022-10-30T16:24:05.475Z,8.25
2022-10-30T16:29:22.430Z,8.00
2022-10-30T16:34:31.697Z,8.00
2022-10-30T16:39:35.756Z,7.25
2022-10-30T16:44:38.638Z,8.50
2022-10-30T16:49:49.636Z,8.00
2022-10-30T16:55:00.595Z,7.50
2022-10-30T17:00:05.215Z,7.75
2022-10-30T17:05:13.360Z,6.50
2022-10-30T17:10:33.565Z,6.50
2022-10-30T17:15:36.387Z,7.00
2022-10-30T17:20:41.157Z,8.50
2022-10-30T17:25:43.858Z,6.25
2022-10-30T17:30:47.824Z,7.25
2022-10-30T17:35:52.010Z,6.50
2022-10-30T17:40:55.089Z,9.25
2022-10-30T17:45:58.052Z,7.75
2022-10-30T17:51:02.126Z,10.50
2022-10-30T17:56:11.061Z,7.50
2022-10-30T18:01:15.090Z,10.00
2022-10-30T18:06:21.618Z,8.00
2022-10-30T18:11:26.974Z,9.00
2022-10-30T18:16:30.190Z,8.25
2022-10-30T18:21:34.179Z,9.50
2022-10-30T18:26:40.526Z,8.25
2022-10-30T18:31:43.662Z,10.00
2022-10-30T18:36:47.939Z,10.00
2022-10-30T18:41:50.803Z,10.75
2022-10-30T18:46:54.262Z,10.00
2022-10-30T18:52:00.649Z,11.00
2022-10-30T18:57:03.315Z,10.75
2022-10-30T19:02:20.267Z,11.00
2022-10-30T19:07:24.353Z,11.00
2022-10-30T19:12:27.049Z,11.00
2022-10-30T19:17:29.717Z,11.00
2022-10-30T19:22:33.733Z,10.50
2022-10-30T19:27:36.406Z,10.50
2022-10-30T19:32:39.080Z,11.25
2022-10-30T19:37:44.024Z,11.25
2022-10-30T19:42:46.955Z,12.00
2022-10-30T19:47:51.099Z,10.00
2022-10-30T19:52:57.305Z,10.50
2022-10-30T19:58:01.617Z,10.00
2022-10-30T20:03:06.121Z,11.50
2022-10-30T20:08:14.998Z,11.00
2022-10-30T20:13:17.908Z,9.25
2022-10-30T20:18:22.008Z,10.00
2022-10-30T20:23:26.566Z,10.50
2022-10-30T20:28:32.318Z,10.75
2022-10-30T20:33:35.316Z,10.00
2022-10-30T20:38:40.170Z,9.75
2022-10-30T20:43:42.815Z,10.00
2022-10-30T20:48:45.416Z,10.50
2022-10-30T20:53:49.458Z,10.00
2022-10-30T20:58:53.414Z,11.00
2022-10-30T21:04:00.654Z,10.75
2022-10-30T21:09:06.348Z,9.25
2022-10-30T21:14:08.957Z,11.00
2022-10-30T21:19:11.677Z,9.00
2022-10-30T21:24:15.633Z,10.00
2022-10-30T21:29:18.289Z,11.75
2022-10-30T21:34:20.964Z,10.25
2022-10-30T21:39:24.954Z,9.75
2022-10-30T21:44:27.586Z,11.25
2022-10-30T21:49:30.178Z,11.25
2022-10-30T21:54:34.193Z,9.25
2022-10-30T21:59:36.873Z,10.75
2022-10-30T22:04:39.475Z,11.50
2022-10-30T22:09:43.785Z,11.25
2022-10-30T22:14:46.370Z,11.00
2022-10-30T22:19:49.138Z,11.00
2022-10-30T22:24:53.058Z,10.25
2022-10-30T22:29:55.674Z,13.25
2022-10-30T22:34:58.862Z,11.25
2022-10-30T22:40:02.816Z,11.25
2022-10-30T22:45:06.073Z,11.25
2022-10-30T22:50:09.498Z,12.50
2022-10-30T22:55:13.458Z,10.00
2022-10-30T23:00:27.019Z,12.00
2022-10-30T23:05:29.607Z,11.00
2022-10-30T23:10:33.564Z,10.50
2022-10-30T23:15:39.416Z,10.25
2022-10-30T23:20:43.153Z,10.50
2022-10-30T23:25:47.059Z,10.75
2022-10-30T23:30:49.772Z,9.50
2022-10-30T23:35:58.523Z,10.50
2022-10-30T23:41:05.188Z,8.50
2022-10-30T23:46:07.777Z,9.00
2022-10-30T23:51:10.641Z,8.00
2022-10-30T23:56:14.936Z,9.50
